createdAt,value
2023-02-27T00:02:33.576Z,4.07
2023-02-27T00:05:37.515Z,3.60
2023-02-27T00:08:40.751Z,3.45
2023-02-27T00:11:44.200Z,3.10
2023-02-27T00:14:47.270Z,3.17
2023-02-27T00:17:50.953Z,3.37
2023-02-27T00:20:54.753Z,3.20
2023-02-27T00:24:00.457Z,3.53
2023-02-27T00:27:03.751Z,3.40
2023-02-27T00:30:10.855Z,2.80
2023-02-27T00:33:14.261Z,3.07
2023-02-27T00:36:18.460Z,2.70
2023-02-27T00:39:22.072Z,3.08
2023-02-27T00:42:25.975Z,2.80
2023-02-27T00:45:29.473Z,3.30
2023-02-27T00:48:33.056Z,3.20
2023-02-27T00:51:37.797Z,3.30
2023-02-27T00:54:41.539Z,3.10
2023-02-27T00:57:44.863Z,3.15
2023-02-27T01:00:48.567Z,3.10
2023-02-27T01:03:51.798Z,3.00
2023-02-27T01:06:55.313Z,3.30
2023-02-27T01:09:59.127Z,2.95
2023-02-27T01:13:02.919Z,2.87
2023-02-27T01:16:08.634Z,3.87
2023-02-27T01:19:12.377Z,3.33
2023-02-27T01:22:15.981Z,3.37
2023-02-27T01:25:19.576Z,3.50
2023-02-27T01:28:23.152Z,2.80
2023-02-27T01:31:27.397Z,3.12
2023-02-27T01:34:33.369Z,2.43
2023-02-27T01:37:38.745Z,3.20
2023-02-27T01:40:42.839Z,3.00
2023-02-27T01:44:04.981Z,2.80
2023-02-27T01:47:08.298Z,2.83
2023-02-27T01:50:14.296Z,2.90
2023-02-27T01:53:20.254Z,3.25
2023-02-27T01:56:29.405Z,2.35
2023-02-27T01:59:39.931Z,2.97
2023-02-27T02:02:53.673Z,2.60
2023-02-27T02:06:00.094Z,3.03
2023-02-27T02:09:04.667Z,3.28
2023-02-27T02:12:08.982Z,2.55
2023-02-27T02:15:12.462Z,2.77
2023-02-27T02:18:19.419Z,2.90
2023-02-27T02:21:52.097Z,3.30
2023-02-27T02:25:21.822Z,2.92
2023-02-27T02:28:54.905Z,2.62
2023-02-27T02:32:16.330Z,2.70
2023-02-27T02:35:47.012Z,2.67
2023-02-27T02:39:05.463Z,2.30
2023-02-27T02:42:39.254Z,3.12
2023-02-27T02:45:52.836Z,2.78
2023-02-27T02:49:07.369Z,2.97
2023-02-27T02:52:10.629Z,2.90
2023-02-27T02:55:24.354Z,3.35
2023-02-27T02:58:37.420Z,3.03
2023-02-27T03:01:46.581Z,3.55
2023-02-27T03:04:58.935Z,2.85
2023-02-27T03:08:09.110Z,3.40
2023-02-27T03:11:12.555Z,2.90
2023-02-27T03:14:27.285Z,3.33
2023-02-27T03:17:48.793Z,3.12
2023-02-27T03:20:58.214Z,3.27
2023-02-27T03:24:04.111Z,3.72
2023-02-27T03:27:10.087Z,3.50
2023-02-27T03:30:20.018Z,2.75
2023-02-27T03:33:31.948Z,3.45
2023-02-27T03:36:48.676Z,3.30
2023-02-27T03:40:06.655Z,3.97
2023-02-27T03:43:33.009Z,3.40
2023-02-27T03:46:38.420Z,3.20
2023-02-27T03:49:41.824Z,3.33
2023-02-27T03:52:46.347Z,3.40
2023-02-27T03:55:52.402Z,3.58
2023-02-27T03:58:56.761Z,3.78
2023-02-27T04:02:02.749Z,3.10
2023-02-27T04:05:08.268Z,3.30
2023-02-27T04:08:22.505Z,3.30
2023-02-27T04:11:52.796Z,3.40
2023-02-27T04:15:23.631Z,2.90
2023-02-27T04:18:57.393Z,3.67
2023-02-27T04:22:00.491Z,3.40
2023-02-27T04:25:37.117Z,3.00
2023-02-27T04:29:08.065Z,2.92
2023-02-27T04:32:21.964Z,2.90
2023-02-27T04:35:45.470Z,3.40
2023-02-27T04:38:57.026Z,2.62
2023-02-27T04:42:04.181Z,2.95
2023-02-27T04:45:14.293Z,3.33
2023-02-27T04:48:34.808Z,3.27
2023-02-27T04:51:52.042Z,3.03
2023-02-27T04:55:18.030Z,2.72
2023-02-27T04:58:35.488Z,2.73
2023-02-27T05:01:43.615Z,2.50
2023-02-27T05:04:49.858Z,3.05
2023-02-27T05:08:00.033Z,3.12
2023-02-27T05:11:12.149Z,2.95
2023-02-27T05:14:34.879Z,3.20
2023-02-27T05:17:48.219Z,3.03
2023-02-27T05:21:09.753Z,3.43
2023-02-27T05:24:24.467Z,2.60
2023-02-27T05:27:31.362Z,3.22
2023-02-27T05:30:44.792Z,3.33
2023-02-27T05:34:24.352Z,3.08
2023-02-27T05:37:50.657Z,3.58
2023-02-27T05:41:22.842Z,3.42
2023-02-27T05:44:31.276Z,3.55
2023-02-27T05:47:39.902Z,3.25
2023-02-27T05:50:46.295Z,3.62
2023-02-27T05:53:58.493Z,4.20
2023-02-27T05:57:05.637Z,3.20
2023-02-27T06:00:12.330Z,3.22
2023-02-27T06:03:16.989Z,3.60
2023-02-27T06:06:20.548Z,3.80
2023-02-27T06:09:25.133Z,7.60
2023-02-27T06:12:29.641Z,3.92
2023-02-27T06:15:33.184Z,5.62
2023-02-27T06:18:36.280Z,4.30
2023-02-27T06:21:39.894Z,6.47
2023-02-27T06:24:43.010Z,10.57
2023-02-27T06:27:46.473Z,10.50
2023-02-27T06:30:57.451Z,5.18
2023-02-27T06:34:01.503Z,3.70
2023-02-27T06:37:04.568Z,2.87
2023-02-27T06:40:11.857Z,3.60
2023-02-27T06:43:15.682Z,3.40
2023-02-27T06:46:19.177Z,3.10
2023-02-27T06:49:23.432Z,4.60
2023-02-27T06:52:27.405Z,3.33
2023-02-27T06:55:30.433Z,4.90
2023-02-27T06:58:33.866Z,4.75
2023-02-27T07:01:37.402Z,4.45
2023-02-27T07:04:41.304Z,4.67
2023-02-27T07:07:44.699Z,4.82
2023-02-27T07:10:49.815Z,4.60
2023-02-27T07:13:53.280Z,5.05
2023-02-27T07:16:57.652Z,4.40
2023-02-27T07:20:00.922Z,3.85
2023-02-27T07:23:04.427Z,3.78
2023-02-27T07:26:07.854Z,2.53
2023-02-27T07:29:11.400Z,3.62
2023-02-27T07:32:14.504Z,3.30
2023-02-27T07:35:18.737Z,2.83
2023-02-27T07:38:24.166Z,2.83
2023-02-27T07:41:30.728Z,4.50
2023-02-27T07:44:35.845Z,3.22
2023-02-27T07:47:39.175Z,2.87
2023-02-27T07:50:42.230Z,2.62
2023-02-27T07:53:46.245Z,2.65
2023-02-27T07:56:49.433Z,3.90
2023-02-27T07:59:52.830Z,5.05
2023-02-27T08:02:56.205Z,2.80
2023-02-27T08:06:02.341Z,3.57
2023-02-27T08:09:06.288Z,3.17
2023-02-27T08:12:09.756Z,3.60
2023-02-27T08:15:13.127Z,2.65
2023-02-27T08:18:16.540Z,3.17
2023-02-27T08:21:19.719Z,2.75
2023-02-27T08:24:23.616Z,3.53
2023-02-27T08:27:26.550Z,2.47
2023-02-27T08:30:30.174Z,2.58
2023-02-27T08:33:33.988Z,2.55
2023-02-27T08:36:37.850Z,2.70
2023-02-27T08:39:41.188Z,2.70
2023-02-27T08:42:44.825Z,2.37
2023-02-27T08:45:48.983Z,2.65
2023-02-27T08:48:52.814Z,2.87
2023-02-27T08:51:56.138Z,2.67
2023-02-27T08:55:00.466Z,2.65
2023-02-27T08:58:04.953Z,2.37
2023-02-27T09:01:08.664Z,2.25
2023-02-27T09:04:12.460Z,2.10
2023-02-27T09:07:15.779Z,2.63
2023-02-27T09:10:19.546Z,2.10
2023-02-27T09:13:22.795Z,2.87
2023-02-27T09:16:26.116Z,2.75
2023-02-27T09:19:29.564Z,2.90
2023-02-27T09:22:32.612Z,2.30
2023-02-27T09:25:36.661Z,2.42
2023-02-27T09:28:40.157Z,2.17
2023-02-27T09:31:43.883Z,2.17
2023-02-27T09:34:47.130Z,2.40
2023-02-27T09:37:50.666Z,2.40
2023-02-27T09:40:56.852Z,2.35
2023-02-27T09:44:01.774Z,2.20
2023-02-27T09:47:11.036Z,2.05
2023-02-27T09:50:25.247Z,2.45
2023-02-27T09:53:42.361Z,2.20
2023-02-27T09:56:52.573Z,2.30
2023-02-27T10:00:02.688Z,2.20
2023-02-27T10:03:28.859Z,2.45
2023-02-27T10:06:44.547Z,2.50
2023-02-27T10:10:04.858Z,2.70
2023-02-27T10:13:25.985Z,2.20
2023-02-27T10:16:32.534Z,2.30
2023-02-27T10:19:37.890Z,2.58
2023-02-27T10:22:45.932Z,3.20
2023-02-27T10:25:52.052Z,2.47
2023-02-27T10:28:55.129Z,2.80
2023-02-27T10:32:07.427Z,2.50
2023-02-27T10:35:33.126Z,2.57
2023-02-27T10:38:41.920Z,2.72
2023-02-27T10:41:46.912Z,2.78
2023-02-27T10:44:54.011Z,2.75
2023-02-27T10:47:58.032Z,2.60
2023-02-27T10:51:38.366Z,2.83
2023-02-27T10:54:42.959Z,2.85
2023-02-27T10:57:47.027Z,2.80
2023-02-27T11:00:57.268Z,3.17
2023-02-27T11:04:00.686Z,3.47
2023-02-27T11:07:09.530Z,2.72
2023-02-27T11:10:28.534Z,2.43
2023-02-27T11:13:34.639Z,2.67
2023-02-27T11:16:53.627Z,3.00
2023-02-27T11:19:58.112Z,2.75
2023-02-27T11:23:07.816Z,3.50
2023-02-27T11:26:20.892Z,3.08
2023-02-27T11:29:24.289Z,3.05
2023-02-27T11:32:35.766Z,2.80
2023-02-27T11:35:39.744Z,2.83
2023-02-27T11:38:54.261Z,3.10
2023-02-27T11:42:05.522Z,2.78
2023-02-27T11:46:24.963Z,3.05
2023-02-27T11:48:51.040Z,3.30
2023-02-27T11:52:27.493Z,3.55
2023-02-27T11:55:32.527Z,2.92
2023-02-27T11:58:43.061Z,2.83
2023-02-27T12:01:55.195Z,3.72
2023-02-27T12:05:32.498Z,3.00
2023-02-27T12:08:46.479Z,3.12
2023-02-27T12:11:52.237Z,2.80
2023-02-27T12:15:05.982Z,3.47
2023-02-27T12:18:24.092Z,3.15
2023-02-27T12:21:44.107Z,3.10
2023-02-27T12:24:53.105Z,2.55
2023-02-27T12:28:06.420Z,2.87
2023-02-27T12:31:34.178Z,3.28
2023-02-27T12:34:46.668Z,2.97
2023-02-27T12:37:51.265Z,2.50
2023-02-27T12:41:13.326Z,3.92
2023-02-27T12:44:26.825Z,3.90
2023-02-27T12:47:51.796Z,5.78
2023-02-27T12:51:04.700Z,3.25
2023-02-27T12:54:16.877Z,4.27
2023-02-27T12:57:37.403Z,3.33
2023-02-27T13:00:48.626Z,3.00
2023-02-27T13:04:13.745Z,2.80
2023-02-27T13:07:35.983Z,2.42
2023-02-27T13:10:51.681Z,3.20
2023-02-27T13:14:02.373Z,4.10
2023-02-27T13:17:40.210Z,3.05
2023-02-27T13:20:57.322Z,3.10
2023-02-27T13:24:15.576Z,2.57
2023-02-27T13:27:32.548Z,3.35
2023-02-27T13:30:42.351Z,3.37
2023-02-27T13:33:59.801Z,2.65
2023-02-27T13:37:05.802Z,2.95
2023-02-27T13:40:29.081Z,3.17
2023-02-27T13:43:51.066Z,3.85
2023-02-27T13:46:55.049Z,3.37
2023-02-27T13:50:01.680Z,3.42
2023-02-27T13:53:18.209Z,3.00
2023-02-27T13:56:25.111Z,3.75
2023-02-27T13:59:44.589Z,7.03
2023-02-27T14:03:09.139Z,5.30
2023-02-27T14:06:13.058Z,5.30
2023-02-27T14:09:20.906Z,3.15
2023-02-27T14:12:44.528Z,3.53
2023-02-27T14:15:55.381Z,2.80
2023-02-27T14:19:01.259Z,3.80
2023-02-27T14:22:16.843Z,4.53
2023-02-27T14:25:30.711Z,4.97
2023-02-27T14:28:42.066Z,3.47
2023-02-27T14:31:46.974Z,4.12
2023-02-27T14:34:52.264Z,3.97
2023-02-27T14:38:03.977Z,4.25
2023-02-27T14:41:29.991Z,5.00
2023-02-27T14:44:47.338Z,4.45
2023-02-27T14:47:51.953Z,3.28
2023-02-27T14:50:58.073Z,3.17
2023-02-27T14:54:16.241Z,4.18
2023-02-27T14:57:29.023Z,3.85
2023-02-27T15:00:37.047Z,3.45
2023-02-27T15:03:54.500Z,3.43
2023-02-27T15:06:59.819Z,3.45
2023-02-27T15:10:06.349Z,3.80
2023-02-27T15:13:25.168Z,3.80
2023-02-27T15:16:35.133Z,3.72
2023-02-27T15:19:47.593Z,4.00
2023-02-27T15:22:51.356Z,3.25
2023-02-27T15:25:59.732Z,3.57
2023-02-27T15:29:05.776Z,3.80
2023-02-27T15:32:26.372Z,3.62
2023-02-27T15:35:36.059Z,3.92
2023-02-27T15:38:40.702Z,3.40
2023-02-27T15:42:06.904Z,3.97
2023-02-27T15:45:20.054Z,3.60
2023-02-27T15:48:24.080Z,3.70
2023-02-27T15:51:29.167Z,3.42
2023-02-27T15:54:35.262Z,3.03
2023-02-27T15:57:38.585Z,3.53
2023-02-27T16:00:42.636Z,3.50
2023-02-27T16:03:49.565Z,3.28
2023-02-27T16:07:06.441Z,3.17
2023-02-27T16:10:22.259Z,3.40
2023-02-27T16:13:25.416Z,4.40
2023-02-27T16:16:36.295Z,4.32
2023-02-27T16:19:40.712Z,3.87
2023-02-27T16:23:05.576Z,9.50
2023-02-27T16:26:32.144Z,8.32
2023-02-27T16:29:45.100Z,6.33
2023-02-27T16:32:48.846Z,6.32
2023-02-27T16:36:13.067Z,6.53
2023-02-27T16:39:16.423Z,9.65
2023-02-27T16:42:21.096Z,8.43
2023-02-27T16:45:29.356Z,8.38
2023-02-27T16:48:33.292Z,8.52
2023-02-27T16:51:37.965Z,7.20
2023-02-27T16:54:41.968Z,9.40
2023-02-27T16:57:45.317Z,7.85
2023-02-27T17:00:48.994Z,8.73
2023-02-27T17:03:53.316Z,7.53
2023-02-27T17:06:58.862Z,9.57
2023-02-27T17:10:03.142Z,9.18
2023-02-27T17:13:07.151Z,10.73
2023-02-27T17:16:20.404Z,10.25
2023-02-27T17:19:28.199Z,11.23
2023-02-27T17:22:35.985Z,11.37
2023-02-27T17:25:42.463Z,12.65
2023-02-27T17:28:46.081Z,16.65
2023-02-27T17:31:50.677Z,15.93
2023-02-27T17:34:55.709Z,15.60
2023-02-27T17:38:00.631Z,16.42
2023-02-27T17:41:10.017Z,18.50
2023-02-27T17:44:14.135Z,19.83
2023-02-27T17:47:18.493Z,21.00
2023-02-27T17:50:32.399Z,21.33
2023-02-27T17:53:37.574Z,23.00
2023-02-27T17:56:42.033Z,26.85
2023-02-27T17:59:46.220Z,24.25
2023-02-27T18:02:50.965Z,21.63
2023-02-27T18:05:55.240Z,15.60
2023-02-27T18:08:59.928Z,13.27
2023-02-27T18:12:05.942Z,11.77
2023-02-27T18:15:10.953Z,10.95
2023-02-27T18:18:15.929Z,10.32
2023-02-27T18:21:23.228Z,9.02
2023-02-27T18:24:28.325Z,8.47
2023-02-27T18:27:33.179Z,7.95
2023-02-27T18:30:40.259Z,8.13
2023-02-27T18:33:44.383Z,9.47
2023-02-27T18:36:52.155Z,8.98
2023-02-27T18:39:57.668Z,8.35
2023-02-27T18:43:02.142Z,7.57
2023-02-27T18:46:07.927Z,7.18
2023-02-27T18:49:13.285Z,7.18
2023-02-27T18:52:18.104Z,6.70
2023-02-27T18:55:22.540Z,6.30
2023-02-27T18:58:26.187Z,6.35
2023-02-27T19:01:33.251Z,5.55
2023-02-27T19:04:37.877Z,6.63
2023-02-27T19:07:43.210Z,6.32
2023-02-27T19:10:48.063Z,5.53
2023-02-27T19:13:53.923Z,5.32
2023-02-27T19:17:01.003Z,4.85
2023-02-27T19:20:07.490Z,5.75
2023-02-27T19:23:15.227Z,6.40
2023-02-27T19:26:20.405Z,7.60
2023-02-27T19:29:24.273Z,8.07
2023-02-27T19:32:35.858Z,9.40
2023-02-27T19:35:43.177Z,9.83
2023-02-27T19:38:49.611Z,9.13
2023-02-27T19:41:54.768Z,9.40
2023-02-27T19:45:01.444Z,7.80
2023-02-27T19:48:06.188Z,7.12
2023-02-27T19:51:13.711Z,7.47
2023-02-27T19:54:18.326Z,8.68
2023-02-27T19:57:22.662Z,8.40
2023-02-27T20:00:27.300Z,11.45
2023-02-27T20:03:33.079Z,10.45
2023-02-27T20:06:42.585Z,11.90
2023-02-27T20:09:47.909Z,12.20
2023-02-27T20:12:52.738Z,10.90
2023-02-27T20:16:04.957Z,12.55
2023-02-27T20:19:15.100Z,10.55
2023-02-27T20:22:23.450Z,9.85
2023-02-27T20:25:30.494Z,10.60
2023-02-27T20:28:36.276Z,9.90
2023-02-27T20:31:44.839Z,10.02
2023-02-27T20:34:54.181Z,9.68
2023-02-27T20:37:59.853Z,10.03
2023-02-27T20:41:06.130Z,9.82
2023-02-27T20:44:12.536Z,10.25
2023-02-27T20:47:17.920Z,13.55
2023-02-27T20:50:22.149Z,10.68
2023-02-27T20:53:28.110Z,11.27
2023-02-27T20:56:38.711Z,10.68
2023-02-27T20:59:50.722Z,10.23
2023-02-27T21:02:56.545Z,9.63
2023-02-27T21:06:00.866Z,10.32
2023-02-27T21:09:06.804Z,10.67
2023-02-27T21:12:11.939Z,13.18
2023-02-27T21:15:15.138Z,11.98
2023-02-27T21:18:18.864Z,10.45
2023-02-27T21:21:26.114Z,11.40
2023-02-27T21:24:32.304Z,11.27
2023-02-27T21:27:35.652Z,11.77
2023-02-27T21:30:41.528Z,9.53
2023-02-27T21:33:46.140Z,10.60
2023-02-27T21:36:51.118Z,10.45
2023-02-27T21:39:56.847Z,11.07
2023-02-27T21:43:00.600Z,11.38
2023-02-27T21:46:08.227Z,12.57
2023-02-27T21:49:20.621Z,12.52
2023-02-27T21:52:23.860Z,12.05
2023-02-27T21:55:27.427Z,11.50
2023-02-27T21:58:30.969Z,13.95
2023-02-27T22:01:35.998Z,13.17
2023-02-27T22:04:42.429Z,14.48
2023-02-27T22:07:45.675Z,13.65
2023-02-27T22:10:49.218Z,14.10
2023-02-27T22:13:52.751Z,14.82
2023-02-27T22:16:56.171Z,17.87
2023-02-27T22:19:59.350Z,17.25
2023-02-27T22:23:04.202Z,18.65
2023-02-27T22:26:13.695Z,17.65
2023-02-27T22:29:17.473Z,18.12
2023-02-27T22:32:20.761Z,18.60
2023-02-27T22:35:25.265Z,17.60
2023-02-27T22:38:29.169Z,18.27
2023-02-27T22:41:36.976Z,16.77
2023-02-27T22:44:40.103Z,16.55
2023-02-27T22:47:44.495Z,18.58
2023-02-27T22:50:57.026Z,17.95
2023-02-27T22:54:03.181Z,17.65
2023-02-27T22:57:06.301Z,16.90
2023-02-27T23:00:11.804Z,18.40
2023-02-27T23:03:15.578Z,19.23
2023-02-27T23:06:22.039Z,18.12
2023-02-27T23:09:27.331Z,19.42
2023-02-27T23:12:31.013Z,18.07
2023-02-27T23:15:35.699Z,16.65
2023-02-27T23:18:41.013Z,17.15
2023-02-27T23:21:44.258Z,16.27
2023-02-27T23:24:48.289Z,16.75
2023-02-27T23:27:51.411Z,15.68
2023-02-27T23:30:55.242Z,15.80
2023-02-27T23:33:58.656Z,15.50
2023-02-27T23:37:04.532Z,15.68
2023-02-27T23:40:08.516Z,17.73
2023-02-27T23:43:31.151Z,16.93
2023-02-27T23:46:34.287Z,17.40
2023-02-27T23:49:37.991Z,16.15
2023-02-27T23:52:41.146Z,17.10
2023-02-27T23:55:44.725Z,15.90
2023-02-27T23:58:48.044Z,14.05
